sensor_id;sensor_type;location;lat;lon;timestamp;P1;durP1;ratioP1;P2;durP2;ratioP2
29906;SDS011;16776;50.958;10.994;2023-04-01T00:02:26;1.30;;;0.32;;
29906;SDS011;16776;50.958;10.994;2023-04-01T00:04:54;0.65;;;0.30;;
29906;SDS011;16776;50.958;10.994;2023-04-01T00:07:20;1.23;;;0.35;;
29906;SDS011;16776;50.958;10.994;2023-04-01T00:09:47;0.50;;;0.38;;
29906;SDS011;16776;50.958;10.994;2023-04-01T00:12:14;2.72;;;0.40;;
29906;SDS011;16776;50.958;10.994;2023-04-01T00:14:40;1.08;;;0.30;;
29906;SDS011;16776;50.958;10.994;2023-04-01T00:17:07;1.52;;;0.40;;
29906;SDS011;16776;50.958;10.994;2023-04-01T00:19:34;1.10;;;0.45;;
29906;SDS011;16776;50.958;10.994;2023-04-01T00:22:02;2.80;;;0.40;;
29906;SDS011;16776;50.958;10.994;2023-04-01T00:24:28;0.50;;;0.25;;
29906;SDS011;16776;50.958;10.994;2023-04-01T00:26:55;0.65;;;0.22;;
29906;SDS011;16776;50.958;10.994;2023-04-01T00:29:22;1.88;;;0.30;;
29906;SDS011;16776;50.958;10.994;2023-04-01T00:31:54;0.55;;;0.22;;
29906;SDS011;16776;50.958;10.994;2023-04-01T00:34:21;1.20;;;0.22;;
29906;SDS011;16776;50.958;10.994;2023-04-01T00:36:48;1.08;;;0.43;;
29906;SDS011;16776;50.958;10.994;2023-04-01T00:39:16;0.70;;;0.38;;
29906;SDS011;16776;50.958;10.994;2023-04-01T00:41:43;0.25;;;0.20;;
29906;SDS011;16776;50.958;10.994;2023-04-01T00:44:16;0.60;;;0.22;;
29906;SDS011;16776;50.958;10.994;2023-04-01T00:46:48;0.50;;;0.28;;
29906;SDS011;16776;50.958;10.994;2023-04-01T00:51:50;0.45;;;0.30;;
29906;SDS011;16776;50.958;10.994;2023-04-01T00:54:20;0.40;;;0.40;;
29906;SDS011;16776;50.958;10.994;2023-04-01T00:56:49;0.57;;;0.22;;
29906;SDS011;16776;50.958;10.994;2023-04-01T00:59:22;0.30;;;0.30;;
29906;SDS011;16776;50.958;10.994;2023-04-01T01:01:53;0.15;;;0.15;;
29906;SDS011;16776;50.958;10.994;2023-04-01T01:04:24;0.30;;;0.20;;
29906;SDS011;16776;50.958;10.994;2023-04-01T01:06:55;0.35;;;0.20;;
29906;SDS011;16776;50.958;10.994;2023-04-01T01:09:32;1.45;;;0.73;;
29906;SDS011;16776;50.958;10.994;2023-04-01T01:12:10;1.30;;;0.20;;
29906;SDS011;16776;50.958;10.994;2023-04-01T01:14:44;0.93;;;0.20;;
29906;SDS011;16776;50.958;10.994;2023-04-01T01:17:19;0.70;;;0.10;;
29906;SDS011;16776;50.958;10.994;2023-04-01T01:26:00;0.82;;;0.20;;
29906;SDS011;16776;50.958;10.994;2023-04-01T01:28:55;1.85;;;0.32;;
29906;SDS011;16776;50.958;10.994;2023-04-01T01:31:36;0.43;;;0.20;;
29906;SDS011;16776;50.958;10.994;2023-04-01T01:34:11;0.43;;;0.20;;
29906;SDS011;16776;50.958;10.994;2023-04-01T01:36:48;0.88;;;0.20;;
29906;SDS011;16776;50.958;10.994;2023-04-01T01:39:20;0.57;;;0.22;;
29906;SDS011;16776;50.958;10.994;2023-04-01T01:41:51;0.30;;;0.30;;
29906;SDS011;16776;50.958;10.994;2023-04-01T01:44:19;0.65;;;0.20;;
29906;SDS011;16776;50.958;10.994;2023-04-01T01:46:47;1.55;;;0.10;;
29906;SDS011;16776;50.958;10.994;2023-04-01T01:49:15;1.75;;;0.45;;
29906;SDS011;16776;50.958;10.994;2023-04-01T01:51:44;0.30;;;0.30;;
29906;SDS011;16776;50.958;10.994;2023-04-01T01:54:13;0.28;;;0.10;;
29906;SDS011;16776;50.958;10.994;2023-04-01T01:56:40;0.52;;;0.22;;
29906;SDS011;16776;50.958;10.994;2023-04-01T01:59:09;0.17;;;0.15;;
29906;SDS011;16776;50.958;10.994;2023-04-01T02:01:39;0.30;;;0.30;;
29906;SDS011;16776;50.958;10.994;2023-04-01T02:04:09;1.00;;;0.30;;
29906;SDS011;16776;50.958;10.994;2023-04-01T02:06:38;0.85;;;0.38;;
29906;SDS011;16776;50.958;10.994;2023-04-01T02:09:09;0.43;;;0.30;;
29906;SDS011;16776;50.958;10.994;2023-04-01T02:11:40;4.32;;;0.40;;
29906;SDS011;16776;50.958;10.994;2023-04-01T02:14:10;0.20;;;0.20;;
29906;SDS011;16776;50.958;10.994;2023-04-01T02:16:43;0.30;;;0.30;;
29906;SDS011;16776;50.958;10.994;2023-04-01T02:19:13;0.47;;;0.28;;
29906;SDS011;16776;50.958;10.994;2023-04-01T02:21:47;0.17;;;0.10;;
29906;SDS011;16776;50.958;10.994;2023-04-01T02:24:17;0.85;;;0.30;;
29906;SDS011;16776;50.958;10.994;2023-04-01T02:26:48;0.57;;;0.10;;
29906;SDS011;16776;50.958;10.994;2023-04-01T02:29:17;0.50;;;0.20;;
29906;SDS011;16776;50.958;10.994;2023-04-01T02:31:45;0.17;;;0.17;;
29906;SDS011;16776;50.958;10.994;2023-04-01T02:34:13;0.45;;;0.20;;
29906;SDS011;16776;50.958;10.994;2023-04-01T02:36:40;1.58;;;0.30;;
29906;SDS011;16776;50.958;10.994;2023-04-01T02:39:17;1.27;;;0.30;;
29906;SDS011;16776;50.958;10.994;2023-04-01T02:41:44;0.28;;;0.10;;
29906;SDS011;16776;50.958;10.994;2023-04-01T02:44:14;0.45;;;0.20;;
29906;SDS011;16776;50.958;10.994;2023-04-01T02:46:42;0.47;;;0.20;;
29906;SDS011;16776;50.958;10.994;2023-04-01T02:49:08;0.20;;;0.20;;
29906;SDS011;16776;50.958;10.994;2023-04-01T02:51:36;0.15;;;0.15;;
29906;SDS011;16776;50.958;10.994;2023-04-01T02:54:03;3.50;;;0.20;;
29906;SDS011;16776;50.958;10.994;2023-04-01T02:56:30;0.45;;;0.20;;
29906;SDS011;16776;50.958;10.994;2023-04-01T02:58:56;0.30;;;0.30;;
29906;SDS011;16776;50.958;10.994;2023-04-01T03:01:24;0.47;;;0.20;;
29906;SDS011;16776;50.958;10.994;2023-04-01T03:03:51;0.30;;;0.20;;
29906;SDS011;16776;50.958;10.994;2023-04-01T03:06:17;1.00;;;0.10;;
29906;SDS011;16776;50.958;10.994;2023-04-01T03:08:44;0.20;;;0.20;;
29906;SDS011;16776;50.958;10.994;2023-04-01T03:11:11;0.38;;;0.30;;
29906;SDS011;16776;50.958;10.994;2023-04-01T03:13:38;1.02;;;0.65;;
29906;SDS011;16776;50.958;10.994;2023-04-01T03:16:04;0.28;;;0.10;;
29906;SDS011;16776;50.958;10.994;2023-04-01T03:18:33;0.10;;;0.10;;
29906;SDS011;16776;50.958;10.994;2023-04-01T03:21:12;0.75;;;0.30;;
29906;SDS011;16776;50.958;10.994;2023-04-01T03:23:42;0.35;;;0.20;;
29906;SDS011;16776;50.958;10.994;2023-04-01T03:26:20;0.43;;;0.25;;
29906;SDS011;16776;50.958;10.994;2023-04-01T03:29:00;1.27;;;0.75;;
29906;SDS011;16776;50.958;10.994;2023-04-01T03:31:26;0.10;;;0.10;;
29906;SDS011;16776;50.958;10.994;2023-04-01T03:33:54;2.25;;;0.20;;
29906;SDS011;16776;50.958;10.994;2023-04-01T03:36:21;1.63;;;0.32;;
29906;SDS011;16776;50.958;10.994;2023-04-01T03:38:47;1.60;;;0.40;;
29906;SDS011;16776;50.958;10.994;2023-04-01T03:41:14;2.55;;;0.30;;
29906;SDS011;16776;50.958;10.994;2023-04-01T03:43:43;0.47;;;0.20;;
29906;SDS011;16776;50.958;10.994;2023-04-01T03:46:10;0.10;;;0.10;;
29906;SDS011;16776;50.958;10.994;2023-04-01T03:48:37;0.32;;;0.32;;
29906;SDS011;16776;50.958;10.994;2023-04-01T03:51:07;0.55;;;0.35;;
29906;SDS011;16776;50.958;10.994;2023-04-01T03:53:36;0.52;;;0.20;;
29906;SDS011;16776;50.958;10.994;2023-04-01T03:56:03;1.15;;;0.40;;
29906;SDS011;16776;50.958;10.994;2023-04-01T03:58:30;0.50;;;0.15;;
29906;SDS011;16776;50.958;10.994;2023-04-01T04:00:57;0.35;;;0.20;;
29906;SDS011;16776;50.958;10.994;2023-04-01T04:03:24;0.93;;;0.40;;
29906;SDS011;16776;50.958;10.994;2023-04-01T04:05:51;0.52;;;0.30;;
29906;SDS011;16776;50.958;10.994;2023-04-01T04:08:19;0.47;;;0.22;;
29906;SDS011;16776;50.958;10.994;2023-04-01T04:10:54;0.20;;;0.20;;
29906;SDS011;16776;50.958;10.994;2023-04-01T04:13:23;0.28;;;0.20;;
29906;SDS011;16776;50.958;10.994;2023-04-01T04:15:50;1.38;;;0.43;;
29906;SDS011;16776;50.958;10.994;2023-04-01T04:18:16;1.77;;;0.45;;
29906;SDS011;16776;50.958;10.994;2023-04-01T04:20:43;0.47;;;0.20;;
29906;SDS011;16776;50.958;10.994;2023-04-01T04:23:12;0.55;;;0.15;;
29906;SDS011;16776;50.958;10.994;2023-04-01T04:25:40;0.20;;;0.20;;
29906;SDS011;16776;50.958;10.994;2023-04-01T04:28:06;1.20;;;0.30;;
29906;SDS011;16776;50.958;10.994;2023-04-01T04:30:33;0.85;;;0.40;;
29906;SDS011;16776;50.958;10.994;2023-04-01T04:33:00;0.68;;;0.40;;
29906;SDS011;16776;50.958;10.994;2023-04-01T04:35:26;0.47;;;0.47;;
29906;SDS011;16776;50.958;10.994;2023-04-01T04:37:53;0.60;;;0.20;;
29906;SDS011;16776;50.958;10.994;2023-04-01T04:40:19;1.17;;;0.25;;
29906;SDS011;16776;50.958;10.994;2023-04-01T04:42:47;0.73;;;0.10;;
29906;SDS011;16776;50.958;10.994;2023-04-01T04:45:14;0.47;;;0.20;;
29906;SDS011;16776;50.958;10.994;2023-04-01T04:47:40;1.38;;;0.20;;
29906;SDS011;16776;50.958;10.994;2023-04-01T04:50:07;0.17;;;0.10;;
29906;SDS011;16776;50.958;10.994;2023-04-01T04:52:35;0.10;;;0.10;;
29906;SDS011;16776;50.958;10.994;2023-04-01T04:55:01;0.70;;;0.25;;
29906;SDS011;16776;50.958;10.994;2023-04-01T04:57:28;0.20;;;0.20;;
29906;SDS011;16776;50.958;10.994;2023-04-01T04:59:56;1.55;;;0.20;;
29906;SDS011;16776;50.958;10.994;2023-04-01T05:02:23;0.80;;;0.20;;
29906;SDS011;16776;50.958;10.994;2023-04-01T05:04:49;0.20;;;0.13;;
29906;SDS011;16776;50.958;10.994;2023-04-01T05:07:16;0.15;;;0.15;;
29906;SDS011;16776;50.958;10.994;2023-04-01T05:09:43;1.10;;;0.38;;
29906;SDS011;16776;50.958;10.994;2023-04-01T05:12:10;0.15;;;0.10;;
29906;SDS011;16776;50.958;10.994;2023-04-01T05:14:38;0.08;;;0.08;;
29906;SDS011;16776;50.958;10.994;2023-04-01T05:17:09;0.28;;;0.13;;
29906;SDS011;16776;50.958;10.994;2023-04-01T05:19:36;0.30;;;0.20;;
29906;SDS011;16776;50.958;10.994;2023-04-01T05:22:02;0.10;;;0.10;;
29906;SDS011;16776;50.958;10.994;2023-04-01T05:24:32;0.25;;;0.15;;
29906;SDS011;16776;50.958;10.994;2023-04-01T05:27:02;0.43;;;0.10;;
29906;SDS011;16776;50.958;10.994;2023-04-01T05:29:28;0.20;;;0.10;;
29906;SDS011;16776;50.958;10.994;2023-04-01T05:31:55;0.17;;;0.17;;
29906;SDS011;16776;50.958;10.994;2023-04-01T05:34:23;0.20;;;0.20;;
29906;SDS011;16776;50.958;10.994;2023-04-01T05:36:49;0.35;;;0.20;;
29906;SDS011;16776;50.958;10.994;2023-04-01T05:39:17;1.55;;;0.20;;
29906;SDS011;16776;50.958;10.994;2023-04-01T05:41:43;1.38;;;0.10;;
29906;SDS011;16776;50.958;10.994;2023-04-01T05:44:15;0.22;;;0.10;;
29906;SDS011;16776;50.958;10.994;2023-04-01T05:46:44;1.30;;;0.55;;
29906;SDS011;16776;50.958;10.994;2023-04-01T05:49:11;0.13;;;0.10;;
29906;SDS011;16776;50.958;10.994;2023-04-01T05:51:39;0.25;;;0.20;;
29906;SDS011;16776;50.958;10.994;2023-04-01T05:54:09;0.75;;;0.30;;
29906;SDS011;16776;50.958;10.994;2023-04-01T05:56:36;0.52;;;0.20;;
29906;SDS011;16776;50.958;10.994;2023-04-01T05:59:02;0.40;;;0.20;;
29906;SDS011;16776;50.958;10.994;2023-04-01T06:01:29;0.35;;;0.28;;
29906;SDS011;16776;50.958;10.994;2023-04-01T06:03:58;0.82;;;0.20;;
29906;SDS011;16776;50.958;10.994;2023-04-01T06:06:25;0.38;;;0.17;;
29906;SDS011;16776;50.958;10.994;2023-04-01T06:08:54;0.43;;;0.30;;
29906;SDS011;16776;50.958;10.994;2023-04-01T06:11:26;0.32;;;0.20;;
29906;SDS011;16776;50.958;10.994;2023-04-01T06:14:04;0.75;;;0.30;;
29906;SDS011;16776;50.958;10.994;2023-04-01T06:16:45;0.10;;;0.10;;
29906;SDS011;16776;50.958;10.994;2023-04-01T06:19:32;0.30;;;0.20;;
29906;SDS011;16776;50.958;10.994;2023-04-01T06:22:14;0.90;;;0.28;;
29906;SDS011;16776;50.958;10.994;2023-04-01T06:24:59;1.05;;;0.30;;
29906;SDS011;16776;50.958;10.994;2023-04-01T06:28:02;0.65;;;0.20;;
29906;SDS011;16776;50.958;10.994;2023-04-01T06:30:53;0.25;;;0.15;;
29906;SDS011;16776;50.958;10.994;2023-04-01T06:33:33;0.10;;;0.10;;
29906;SDS011;16776;50.958;10.994;2023-04-01T06:36:19;1.00;;;0.20;;
29906;SDS011;16776;50.958;10.994;2023-04-01T06:39:10;0.47;;;0.30;;
29906;SDS011;16776;50.958;10.994;2023-04-01T06:41:55;0.30;;;0.13;;
29906;SDS011;16776;50.958;10.994;2023-04-01T06:44:35;0.10;;;0.10;;
29906;SDS011;16776;50.958;10.994;2023-04-01T06:47:15;0.43;;;0.20;;
29906;SDS011;16776;50.958;10.994;2023-04-01T06:49:55;0.13;;;0.13;;
29906;SDS011;16776;50.958;10.994;2023-04-01T06:52:26;1.05;;;0.30;;
29906;SDS011;16776;50.958;10.994;2023-04-01T06:55:08;1.35;;;0.60;;
29906;SDS011;16776;50.958;10.994;2023-04-01T06:57:49;0.65;;;0.13;;
29906;SDS011;16776;50.958;10.994;2023-04-01T07:00:22;0.70;;;0.30;;
29906;SDS011;16776;50.958;10.994;2023-04-01T07:03:00;1.35;;;0.25;;
29906;SDS011;16776;50.958;10.994;2023-04-01T07:05:33;0.20;;;0.20;;
29906;SDS011;16776;50.958;10.994;2023-04-01T07:08:03;0.65;;;0.30;;
29906;SDS011;16776;50.958;10.994;2023-04-01T07:10:38;0.60;;;0.30;;
29906;SDS011;16776;50.958;10.994;2023-04-01T07:13:14;0.47;;;0.30;;
29906;SDS011;16776;50.958;10.994;2023-04-01T07:15:54;1.15;;;0.30;;
29906;SDS011;16776;50.958;10.994;2023-04-01T07:18:30;0.35;;;0.17;;
29906;SDS011;16776;50.958;10.994;2023-04-01T07:21:03;0.28;;;0.28;;
29906;SDS011;16776;50.958;10.994;2023-04-01T07:23:36;1.98;;;0.30;;
29906;SDS011;16776;50.958;10.994;2023-04-01T07:26:11;0.55;;;0.25;;
29906;SDS011;16776;50.958;10.994;2023-04-01T07:28:52;0.30;;;0.30;;
29906;SDS011;16776;50.958;10.994;2023-04-01T07:31:21;0.57;;;0.28;;
29906;SDS011;16776;50.958;10.994;2023-04-01T07:33:59;0.10;;;0.10;;
29906;SDS011;16776;50.958;10.994;2023-04-01T07:36:32;0.35;;;0.25;;
29906;SDS011;16776;50.958;10.994;2023-04-01T07:39:05;0.30;;;0.20;;
29906;SDS011;16776;50.958;10.994;2023-04-01T07:41:44;0.30;;;0.30;;
29906;SDS011;16776;50.958;10.994;2023-04-01T07:44:20;0.20;;;0.15;;
29906;SDS011;16776;50.958;10.994;2023-04-01T07:46:59;0.68;;;0.50;;
29906;SDS011;16776;50.958;10.994;2023-04-01T07:49:44;0.30;;;0.30;;
29906;SDS011;16776;50.958;10.994;2023-04-01T07:52:24;1.65;;;0.32;;
29906;SDS011;16776;50.958;10.994;2023-04-01T07:54:59;0.32;;;0.30;;
29906;SDS011;16776;50.958;10.994;2023-04-01T07:57:38;0.73;;;0.30;;
29906;SDS011;16776;50.958;10.994;2023-04-01T08:00:13;0.25;;;0.22;;
29906;SDS011;16776;50.958;10.994;2023-04-01T08:02:51;0.35;;;0.20;;
29906;SDS011;16776;50.958;10.994;2023-04-01T08:05:34;0.30;;;0.20;;
29906;SDS011;16776;50.958;10.994;2023-04-01T08:08:09;0.20;;;0.20;;
29906;SDS011;16776;50.958;10.994;2023-04-01T08:10:45;0.30;;;0.13;;
29906;SDS011;16776;50.958;10.994;2023-04-01T08:13:18;0.75;;;0.30;;
29906;SDS011;16776;50.958;10.994;2023-04-01T08:15:55;0.38;;;0.20;;
29906;SDS011;16776;50.958;10.994;2023-04-01T08:18:33;1.17;;;0.10;;
29906;SDS011;16776;50.958;10.994;2023-04-01T08:21:07;0.75;;;0.10;;
29906;SDS011;16776;50.958;10.994;2023-04-01T08:23:43;0.57;;;0.22;;
29906;SDS011;16776;50.958;10.994;2023-04-01T08:26:15;0.20;;;0.20;;
29906;SDS011;16776;50.958;10.994;2023-04-01T08:28:50;1.42;;;0.32;;
29906;SDS011;16776;50.958;10.994;2023-04-01T08:31:22;1.10;;;0.20;;
29906;SDS011;16776;50.958;10.994;2023-04-01T08:33:56;0.10;;;0.10;;
29906;SDS011;16776;50.958;10.994;2023-04-01T08:36:24;0.25;;;0.13;;
29906;SDS011;16776;50.958;10.994;2023-04-01T08:38:55;0.20;;;0.20;;
29906;SDS011;16776;50.958;10.994;2023-04-01T08:41:33;0.28;;;0.20;;
29906;SDS011;16776;50.958;10.994;2023-04-01T08:44:42;0.20;;;0.10;;
29906;SDS011;16776;50.958;10.994;2023-04-01T08:47:44;0.20;;;0.10;;
29906;SDS011;16776;50.958;10.994;2023-04-01T08:50:42;0.35;;;0.10;;
29906;SDS011;16776;50.958;10.994;2023-04-01T08:53:24;0.20;;;0.10;;
29906;SDS011;16776;50.958;10.994;2023-04-01T08:56:06;0.10;;;0.10;;
29906;SDS011;16776;50.958;10.994;2023-04-01T09:01:39;1.67;;;0.20;;
29906;SDS011;16776;50.958;10.994;2023-04-01T09:04:23;0.50;;;0.30;;
29906;SDS011;16776;50.958;10.994;2023-04-01T09:07:03;0.15;;;0.10;;
29906;SDS011;16776;50.958;10.994;2023-04-01T09:13:08;0.10;;;0.10;;
29906;SDS011;16776;50.958;10.994;2023-04-01T09:15:53;0.30;;;0.10;;
29906;SDS011;16776;50.958;10.994;2023-04-01T09:18:41;1.40;;;0.40;;
29906;SDS011;16776;50.958;10.994;2023-04-01T10:18:15;0.05;;;0.05;;
29906;SDS011;16776;50.958;10.994;2023-04-01T10:26:56;0.15;;;0.08;;
29906;SDS011;16776;50.958;10.994;2023-04-01T10:29:58;0.00;;;0.00;;
29906;SDS011;16776;50.958;10.994;2023-04-01T10:42:20;0.20;;;0.00;;
29906;SDS011;16776;50.958;10.994;2023-04-01T10:48:13;0.25;;;0.00;;
29906;SDS011;16776;50.958;10.994;2023-04-01T10:51:11;0.00;;;0.00;;
29906;SDS011;16776;50.958;10.994;2023-04-01T10:53:46;0.00;;;0.00;;
29906;SDS011;16776;50.958;10.994;2023-04-01T11:02:37;0.00;;;0.00;;
29906;SDS011;16776;50.958;10.994;2023-04-01T11:05:41;0.13;;;0.00;;
29906;SDS011;16776;50.958;10.994;2023-04-01T11:11:40;0.10;;;0.10;;
29906;SDS011;16776;50.958;10.994;2023-04-01T11:14:31;0.05;;;0.03;;
29906;SDS011;16776;50.958;10.994;2023-04-01T11:23:36;0.10;;;0.00;;
29906;SDS011;16776;50.958;10.994;2023-04-01T11:26:14;0.17;;;0.10;;
29906;SDS011;16776;50.958;10.994;2023-04-01T11:29:03;0.00;;;0.00;;
29906;SDS011;16776;50.958;10.994;2023-04-01T11:31:47;0.20;;;0.00;;
29906;SDS011;16776;50.958;10.994;2023-04-01T11:37:25;0.00;;;0.00;;
29906;SDS011;16776;50.958;10.994;2023-04-01T11:40:04;0.00;;;0.00;;
29906;SDS011;16776;50.958;10.994;2023-04-01T11:42:41;0.40;;;0.10;;
29906;SDS011;16776;50.958;10.994;2023-04-01T11:45:21;0.10;;;0.10;;
29906;SDS011;16776;50.958;10.994;2023-04-01T11:48:09;1.85;;;0.20;;
29906;SDS011;16776;50.958;10.994;2023-04-01T11:50:46;0.20;;;0.10;;
29906;SDS011;16776;50.958;10.994;2023-04-01T11:53:38;0.07;;;0.07;;
29906;SDS011;16776;50.958;10.994;2023-04-01T11:56:17;0.10;;;0.05;;
29906;SDS011;16776;50.958;10.994;2023-04-01T12:01:35;0.03;;;0.03;;
29906;SDS011;16776;50.958;10.994;2023-04-01T12:07:06;0.00;;;0.00;;
29906;SDS011;16776;50.958;10.994;2023-04-01T12:09:44;0.10;;;0.10;;
29906;SDS011;16776;50.958;10.994;2023-04-01T12:12:20;0.10;;;0.10;;
29906;SDS011;16776;50.958;10.994;2023-04-01T12:14:56;0.17;;;0.17;;
29906;SDS011;16776;50.958;10.994;2023-04-01T12:17:42;0.57;;;0.40;;
29906;SDS011;16776;50.958;10.994;2023-04-01T12:23:10;0.45;;;0.10;;
29906;SDS011;16776;50.958;10.994;2023-04-01T12:25:53;0.00;;;0.00;;
29906;SDS011;16776;50.958;10.994;2023-04-01T12:28:36;0.10;;;0.10;;
29906;SDS011;16776;50.958;10.994;2023-04-01T12:31:16;0.00;;;0.00;;
29906;SDS011;16776;50.958;10.994;2023-04-01T12:33:54;0.03;;;0.03;;
29906;SDS011;16776;50.958;10.994;2023-04-01T12:36:51;0.20;;;0.20;;
29906;SDS011;16776;50.958;10.994;2023-04-01T12:39:29;0.32;;;0.32;;
29906;SDS011;16776;50.958;10.994;2023-04-01T12:42:07;0.35;;;0.00;;
29906;SDS011;16776;50.958;10.994;2023-04-01T12:44:52;0.00;;;0.00;;
29906;SDS011;16776;50.958;10.994;2023-04-01T12:47:35;0.75;;;0.10;;
29906;SDS011;16776;50.958;10.994;2023-04-01T12:50:33;0.00;;;0.00;;
29906;SDS011;16776;50.958;10.994;2023-04-01T12:53:17;0.38;;;0.10;;
29906;SDS011;16776;50.958;10.994;2023-04-01T12:55:59;0.10;;;0.10;;
29906;SDS011;16776;50.958;10.994;2023-04-01T12:58:44;0.40;;;0.03;;
29906;SDS011;16776;50.958;10.994;2023-04-01T13:07:39;0.10;;;0.00;;
29906;SDS011;16776;50.958;10.994;2023-04-01T13:10:19;0.00;;;0.00;;
29906;SDS011;16776;50.958;10.994;2023-04-01T13:13:07;0.00;;;0.00;;
29906;SDS011;16776;50.958;10.994;2023-04-01T13:15:44;0.15;;;0.00;;
29906;SDS011;16776;50.958;10.994;2023-04-01T13:18:20;0.10;;;0.08;;
29906;SDS011;16776;50.958;10.994;2023-04-01T13:20:59;0.00;;;0.00;;
29906;SDS011;16776;50.958;10.994;2023-04-01T13:23:41;0.08;;;0.08;;
29906;SDS011;16776;50.958;10.994;2023-04-01T13:26:18;0.00;;;0.00;;
29906;SDS011;16776;50.958;10.994;2023-04-01T13:28:50;0.00;;;0.00;;
29906;SDS011;16776;50.958;10.994;2023-04-01T13:31:25;0.00;;;0.00;;
29906;SDS011;16776;50.958;10.994;2023-04-01T13:34:00;0.00;;;0.00;;
29906;SDS011;16776;50.958;10.994;2023-04-01T13:36:36;0.10;;;0.10;;
29906;SDS011;16776;50.958;10.994;2023-04-01T13:39:20;0.00;;;0.00;;
29906;SDS011;16776;50.958;10.994;2023-04-01T13:41:57;0.10;;;0.10;;
29906;SDS011;16776;50.958;10.994;2023-04-01T13:44:38;0.00;;;0.00;;
29906;SDS011;16776;50.958;10.994;2023-04-01T13:47:15;0.00;;;0.00;;
29906;SDS011;16776;50.958;10.994;2023-04-01T13:52:56;0.32;;;0.10;;
29906;SDS011;16776;50.958;10.994;2023-04-01T13:55:50;0.15;;;0.00;;
29906;SDS011;16776;50.958;10.994;2023-04-01T13:58:29;0.10;;;0.10;;
29906;SDS011;16776;50.958;10.994;2023-04-01T14:01:06;0.10;;;0.10;;
29906;SDS011;16776;50.958;10.994;2023-04-01T14:06:39;0.00;;;0.00;;
29906;SDS011;16776;50.958;10.994;2023-04-01T14:09:25;0.00;;;0.00;;
29906;SDS011;16776;50.958;10.994;2023-04-01T14:12:09;0.10;;;0.05;;
29906;SDS011;16776;50.958;10.994;2023-04-01T14:14:46;0.00;;;0.00;;
29906;SDS011;16776;50.958;10.994;2023-04-01T14:17:26;0.00;;;0.00;;
29906;SDS011;16776;50.958;10.994;2023-04-01T14:20:06;0.00;;;0.00;;
29906;SDS011;16776;50.958;10.994;2023-04-01T14:22:55;0.00;;;0.00;;
29906;SDS011;16776;50.958;10.994;2023-04-01T14:28:26;0.00;;;0.00;;
29906;SDS011;16776;50.958;10.994;2023-04-01T14:31:17;0.10;;;0.10;;
29906;SDS011;16776;50.958;10.994;2023-04-01T14:33:57;0.08;;;0.08;;
29906;SDS011;16776;50.958;10.994;2023-04-01T14:36:33;0.08;;;0.08;;
29906;SDS011;16776;50.958;10.994;2023-04-01T14:39:12;0.00;;;0.00;;
29906;SDS011;16776;50.958;10.994;2023-04-01T14:41:51;0.15;;;0.15;;
29906;SDS011;16776;50.958;10.994;2023-04-01T14:44:43;0.00;;;0.00;;
29906;SDS011;16776;50.958;10.994;2023-04-01T14:47:43;0.10;;;0.03;;
29906;SDS011;16776;50.958;10.994;2023-04-01T14:50:15;0.98;;;0.20;;
29906;SDS011;16776;50.958;10.994;2023-04-01T14:52:49;0.40;;;0.30;;
29906;SDS011;16776;50.958;10.994;2023-04-01T14:55:27;0.25;;;0.25;;
29906;SDS011;16776;50.958;10.994;2023-04-01T14:57:58;0.20;;;0.20;;
29906;SDS011;16776;50.958;10.994;2023-04-01T15:00:36;0.05;;;0.05;;
29906;SDS011;16776;50.958;10.994;2023-04-01T15:03:14;0.30;;;0.10;;
29906;SDS011;16776;50.958;10.994;2023-04-01T15:05:47;0.10;;;0.10;;
29906;SDS011;16776;50.958;10.994;2023-04-01T15:08:20;0.00;;;0.00;;
29906;SDS011;16776;50.958;10.994;2023-04-01T15:10:52;0.03;;;0.03;;
29906;SDS011;16776;50.958;10.994;2023-04-01T15:16:27;0.10;;;0.10;;
29906;SDS011;16776;50.958;10.994;2023-04-01T15:19:02;0.10;;;0.08;;
29906;SDS011;16776;50.958;10.994;2023-04-01T15:21:44;0.10;;;0.00;;
29906;SDS011;16776;50.958;10.994;2023-04-01T15:24:21;0.10;;;0.10;;
29906;SDS011;16776;50.958;10.994;2023-04-01T15:26:57;0.00;;;0.00;;
29906;SDS011;16776;50.958;10.994;2023-04-01T15:32:29;1.30;;;0.10;;
29906;SDS011;16776;50.958;10.994;2023-04-01T15:35:09;0.90;;;0.10;;
29906;SDS011;16776;50.958;10.994;2023-04-01T15:37:48;0.03;;;0.00;;
29906;SDS011;16776;50.958;10.994;2023-04-01T15:40:22;0.20;;;0.10;;
29906;SDS011;16776;50.958;10.994;2023-04-01T15:43:00;0.10;;;0.10;;
29906;SDS011;16776;50.958;10.994;2023-04-01T15:45:39;0.10;;;0.10;;
29906;SDS011;16776;50.958;10.994;2023-04-01T15:51:22;0.05;;;0.00;;
29906;SDS011;16776;50.958;10.994;2023-04-01T15:54:23;0.30;;;0.25;;
29906;SDS011;16776;50.958;10.994;2023-04-01T15:57:02;0.20;;;0.20;;
29906;SDS011;16776;50.958;10.994;2023-04-01T16:02:40;0.20;;;0.20;;
29906;SDS011;16776;50.958;10.994;2023-04-01T16:05:23;0.20;;;0.20;;
29906;SDS011;16776;50.958;10.994;2023-04-01T16:08:12;0.30;;;0.20;;
29906;SDS011;16776;50.958;10.994;2023-04-01T16:11:06;0.93;;;0.10;;
29906;SDS011;16776;50.958;10.994;2023-04-01T16:13:43;0.20;;;0.20;;
29906;SDS011;16776;50.958;10.994;2023-04-01T16:16:22;0.10;;;0.10;;
29906;SDS011;16776;50.958;10.994;2023-04-01T16:19:07;0.20;;;0.20;;
29906;SDS011;16776;50.958;10.994;2023-04-01T16:21:51;0.47;;;0.32;;
29906;SDS011;16776;50.958;10.994;2023-04-01T16:24:24;0.25;;;0.22;;
29906;SDS011;16776;50.958;10.994;2023-04-01T16:27:00;0.38;;;0.20;;
29906;SDS011;16776;50.958;10.994;2023-04-01T16:29:32;0.20;;;0.20;;
29906;SDS011;16776;50.958;10.994;2023-04-01T16:35:20;0.28;;;0.28;;
29906;SDS011;16776;50.958;10.994;2023-04-01T16:37:59;0.40;;;0.40;;
29906;SDS011;16776;50.958;10.994;2023-04-01T16:40:34;0.40;;;0.40;;
29906;SDS011;16776;50.958;10.994;2023-04-01T16:43:11;0.40;;;0.40;;
29906;SDS011;16776;50.958;10.994;2023-04-01T16:45:43;0.77;;;0.77;;
29906;SDS011;16776;50.958;10.994;2023-04-01T16:48:18;0.90;;;0.65;;
29906;SDS011;16776;50.958;10.994;2023-04-01T16:50:51;0.60;;;0.60;;
29906;SDS011;16776;50.958;10.994;2023-04-01T16:53:34;0.65;;;0.65;;
29906;SDS011;16776;50.958;10.994;2023-04-01T16:56:08;0.60;;;0.40;;
29906;SDS011;16776;50.958;10.994;2023-04-01T16:58:40;0.93;;;0.60;;
29906;SDS011;16776;50.958;10.994;2023-04-01T17:01:24;0.50;;;0.50;;
29906;SDS011;16776;50.958;10.994;2023-04-01T17:03:57;0.77;;;0.38;;
29906;SDS011;16776;50.958;10.994;2023-04-01T17:06:28;0.30;;;0.30;;
29906;SDS011;16776;50.958;10.994;2023-04-01T17:11:56;0.82;;;0.50;;
29906;SDS011;16776;50.958;10.994;2023-04-01T17:14:32;0.30;;;0.30;;
29906;SDS011;16776;50.958;10.994;2023-04-01T17:17:16;0.45;;;0.40;;
29906;SDS011;16776;50.958;10.994;2023-04-01T17:19:54;1.25;;;0.75;;
29906;SDS011;16776;50.958;10.994;2023-04-01T17:22:33;0.77;;;0.70;;
29906;SDS011;16776;50.958;10.994;2023-04-01T17:28:05;1.42;;;0.93;;
29906;SDS011;16776;50.958;10.994;2023-04-01T17:30:47;1.48;;;1.02;;
29906;SDS011;16776;50.958;10.994;2023-04-01T17:33:23;1.33;;;1.23;;
29906;SDS011;16776;50.958;10.994;2023-04-01T17:35:58;2.47;;;1.52;;
29906;SDS011;16776;50.958;10.994;2023-04-01T17:38:38;1.85;;;1.40;;
29906;SDS011;16776;50.958;10.994;2023-04-01T17:41:30;2.47;;;2.03;;
29906;SDS011;16776;50.958;10.994;2023-04-01T17:44:11;2.60;;;1.27;;
29906;SDS011;16776;50.958;10.994;2023-04-01T17:46:56;1.30;;;1.08;;
29906;SDS011;16776;50.958;10.994;2023-04-01T17:49:33;2.08;;;1.42;;
29906;SDS011;16776;50.958;10.994;2023-04-01T17:52:10;1.15;;;0.80;;
29906;SDS011;16776;50.958;10.994;2023-04-01T17:54:46;1.08;;;0.70;;
29906;SDS011;16776;50.958;10.994;2023-04-01T17:57:27;0.60;;;0.60;;